Terminal Aerodrome Forecast
Issued by NWS

Home | Current Version | Previous Version | Text Only | Print | Product List | Glossary On
Versions: 1 2 3 4 5 6 7 8 9 10 11 12 13 14 15 16 17 18 19 20 21 22 23 24 25 26 27 28 29 30 31 32 33
000
FTUS46 KLOX 211900 AAA
TAFPRB
TAF AMD
KPRB 211902Z 2119/2218 VRB03KT 2SM BR OVC002
     FM212030 VRB03KT P6SM SCT200
     FM212300 36010KT P6SM SCT200
     FM220300 06006KT P6SM SCT200
     FM221100 VRB03KT 1/4SM FG VV001=

USA.gov is the U.S. government's official web portal to all federal, state and local government web resources and services.